Time;durP1;ratioP1;P1;durP2;ratioP2;P2;SDS_P1;SDS_P2;PMS_P1;PMS_P2;Temp;Humidity;BMP_temperature;BMP_pressure;BME280_temperature;BME280_humidity;BME280_pressure;Samples;Min_cycle;Max_cycle;Signal;HPM_P1;HPM_P2
2023/09/10 00:02:03;;;;;;;33.22;30.73;;;;;;;;;;5075259;28;20045;-83
2023/09/10 00:04:32;;;;;;;32.10;29.60;;;;;;;;;;5074032;28;20048;-83
2023/09/10 00:06:58;;;;;;;29.75;27.35;;;;;;;;;;5074263;28;20515;-84
2023/09/10 00:09:24;;;;;;;30.85;28.58;;;;;;;;;;5074038;28;20053;-84
2023/09/10 00:11:51;;;;;;;35.35;32.50;;;;;;;;;;5075207;28;20084;-84
2023/09/10 00:14:17;;;;;;;34.67;32.08;;;;;;;;;;5074988;28;20052;-84
2023/09/10 00:16:44;;;;;;;36.03;33.28;;;;;;;;;;5075122;28;20492;-84
2023/09/10 00:19:12;;;;;;;33.28;30.88;;;;;;;;;;5074061;28;20393;-84
2023/09/10 00:21:38;;;;;;;36.50;33.70;;;;;;;;;;5075135;28;20053;-84
2023/09/10 00:24:05;;;;;;;39.47;36.28;;;;;;;;;;5073961;28;20045;-84
2023/09/10 00:26:31;;;;;;;33.95;31.42;;;;;;;;;;5074272;28;20040;-84
2023/09/10 00:28:57;;;;;;;32.60;30.05;;;;;;;;;;5074529;28;20511;-84
2023/09/10 00:31:23;;;;;;;33.72;31.30;;;;;;;;;;5075580;28;20049;-84
2023/09/10 00:33:49;;;;;;;36.03;33.22;;;;;;;;;;5074390;28;20045;-84
2023/09/10 00:36:15;;;;;;;38.53;35.45;;;;;;;;;;5074804;28;20530;-84
2023/09/10 00:38:41;;;;;;;36.17;33.28;;;;;;;;;;5073342;28;20408;-84
2023/09/10 00:41:07;;;;;;;36.53;33.55;;;;;;;;;;5073998;28;20098;-84
2023/09/10 00:43:34;;;;;;;35.53;32.72;;;;;;;;;;5073855;28;20040;-84
2023/09/10 00:46:00;;;;;;;34.38;31.40;;;;;;;;;;5074572;28;20044;-84
2023/09/10 00:48:26;;;;;;;36.42;33.70;;;;;;;;;;5075005;28;20040;-84
2023/09/10 00:50:53;;;;;;;34.90;32.28;;;;;;;;;;5074560;28;20095;-84
2023/09/10 00:53:20;;;;;;;35.08;32.45;;;;;;;;;;5057057;28;20056;-84
2023/09/10 00:55:47;;;;;;;35.22;32.42;;;;;;;;;;5073852;28;20389;-84
2023/09/10 00:58:13;;;;;;;42.33;38.97;;;;;;;;;;5073140;28;20511;-84
2023/09/10 01:00:42;;;;;;;36.70;34.03;;;;;;;;;;5056866;28;20083;-84
2023/09/10 01:03:08;;;;;;;39.97;36.88;;;;;;;;;;5073944;28;20378;-84
2023/09/10 01:05:34;;;;;;;41.22;38.03;;;;;;;;;;5074759;28;20106;-83
2023/09/10 01:08:02;;;;;;;42.03;38.72;;;;;;;;;;5073640;28;20049;-83
2023/09/10 01:10:33;;;;;;;39.50;36.38;;;;;;;;;;5073970;28;20366;-83
2023/09/10 01:13:02;;;;;;;43.78;40.28;;;;;;;;;;5073382;28;20044;-84
2023/09/10 01:15:28;;;;;;;41.70;38.38;;;;;;;;;;5074610;28;20056;-83
2023/09/10 01:18:00;;;;;;;45.78;42.10;;;;;;;;;;5073474;28;20074;-83
2023/09/10 01:20:41;;;;;;;41.28;38.08;;;;;;;;;;5074111;28;20045;-83
2023/09/10 01:23:15;;;;;;;36.67;33.78;;;;;;;;;;5078300;28;20048;-84
2023/09/10 01:25:41;;;;;;;36.38;33.58;;;;;;;;;;5078632;28;20067;-84
2023/09/10 01:28:07;;;;;;;37.88;34.92;;;;;;;;;;5077669;28;20044;-84
2023/09/10 01:30:33;;;;;;;39.63;36.40;;;;;;;;;;5078275;28;20144;-84
2023/09/10 01:33:06;;;;;;;42.45;38.88;;;;;;;;;;5078346;28;20132;-84
2023/09/10 01:35:34;;;;;;;38.88;35.58;;;;;;;;;;5078449;28;20062;-84
2023/09/10 01:38:04;;;;;;;39.25;36.22;;;;;;;;;;5078064;28;20059;-83
2023/09/10 01:40:35;;;;;;;37.30;34.30;;;;;;;;;;5077416;28;20056;-84
2023/09/10 01:43:06;;;;;;;44.65;40.88;;;;;;;;;;5077349;28;20049;-83
2023/09/10 01:45:33;;;;;;;41.15;37.92;;;;;;;;;;5060993;28;20051;-84
2023/09/10 01:48:01;;;;;;;47.28;43.38;;;;;;;;;;5077010;28;20041;-83
2023/09/10 01:50:29;;;;;;;46.90;42.92;;;;;;;;;;5077745;28;20151;-83
2023/09/10 01:52:55;;;;;;;44.03;40.42;;;;;;;;;;5076894;28;20449;-83
2023/09/10 01:55:21;;;;;;;42.95;39.47;;;;;;;;;;5077791;28;20048;-83
2023/09/10 01:57:47;;;;;;;47.50;43.55;;;;;;;;;;5076645;28;20080;-83
2023/09/10 02:00:13;;;;;;;49.00;44.95;;;;;;;;;;5075744;28;20051;-83
2023/09/10 02:02:39;;;;;;;44.75;41.17;;;;;;;;;;5077149;28;20083;-83
2023/09/10 02:05:06;;;;;;;47.38;43.47;;;;;;;;;;5077433;28;20123;-83
2023/09/10 02:07:32;;;;;;;46.33;42.42;;;;;;;;;;5076767;28;20393;-83
2023/09/10 02:10:01;;;;;;;42.05;38.58;;;;;;;;;;5077741;28;20135;-83
2023/09/10 02:12:27;;;;;;;42.55;39.15;;;;;;;;;;5077683;28;20079;-83
2023/09/10 02:14:53;;;;;;;51.70;47.30;;;;;;;;;;5077480;28;20053;-83
2023/09/10 02:17:19;;;;;;;46.13;42.40;;;;;;;;;;5076812;28;20048;-83
2023/09/10 02:19:45;;;;;;;48.08;44.13;;;;;;;;;;5075541;28;20165;-83
2023/09/10 02:22:11;;;;;;;53.50;48.90;;;;;;;;;;5075680;28;20074;-83
2023/09/10 02:24:37;;;;;;;47.05;43.15;;;;;;;;;;5076514;28;20040;-82
2023/09/10 02:27:03;;;;;;;51.60;47.25;;;;;;;;;;5076495;28;20048;-82
2023/09/10 02:29:29;;;;;;;48.75;44.75;;;;;;;;;;5076868;28;20523;-84
2023/09/10 02:31:55;;;;;;;44.65;40.95;;;;;;;;;;5076061;28;20044;-83
2023/09/10 02:34:21;;;;;;;45.05;41.33;;;;;;;;;;5075711;28;20055;-83
2023/09/10 02:36:47;;;;;;;42.45;38.90;;;;;;;;;;5076442;28;20055;-82
2023/09/10 02:39:14;;;;;;;40.63;37.33;;;;;;;;;;5075630;28;20052;-82
2023/09/10 02:41:40;;;;;;;45.38;41.70;;;;;;;;;;5076652;28;20052;-82
2023/09/10 02:44:06;;;;;;;41.17;37.90;;;;;;;;;;5075981;28;20048;-82
2023/09/10 02:46:32;;;;;;;41.05;37.45;;;;;;;;;;5076334;28;20185;-82
2023/09/10 02:48:58;;;;;;;41.60;38.15;;;;;;;;;;5075680;28;20408;-82
2023/09/10 02:51:24;;;;;;;48.03;43.97;;;;;;;;;;5076493;28;20166;-82
2023/09/10 02:53:50;;;;;;;48.92;44.63;;;;;;;;;;5075747;28;20086;-82
2023/09/10 02:56:16;;;;;;;46.35;42.45;;;;;;;;;;5076556;28;20067;-82
2023/09/10 02:58:42;;;;;;;47.72;43.70;;;;;;;;;;5074747;28;20075;-82
2023/09/10 03:01:08;;;;;;;46.88;42.65;;;;;;;;;;5073402;28;20048;-82
2023/09/10 03:03:34;;;;;;;42.63;39.13;;;;;;;;;;5074957;28;20044;-82
2023/09/10 03:06:01;;;;;;;43.83;40.22;;;;;;;;;;5076028;28;20044;-83
2023/09/10 03:08:27;;;;;;;42.85;39.05;;;;;;;;;;5075662;28;20110;-83
2023/09/10 03:10:53;;;;;;;47.10;43.20;;;;;;;;;;5076488;28;20489;-82
2023/09/10 03:13:19;;;;;;;51.45;47.00;;;;;;;;;;5059208;28;20084;-82
2023/09/10 03:15:49;;;;;;;48.33;44.22;;;;;;;;;;5075377;28;20098;-83
2023/09/10 03:18:15;;;;;;;42.17;38.80;;;;;;;;;;5074991;28;20047;-83
2023/09/10 03:20:42;;;;;;;41.83;38.45;;;;;;;;;;5075343;28;20067;-83
2023/09/10 03:23:08;;;;;;;43.55;40.00;;;;;;;;;;5058693;28;20103;-83
2023/09/10 03:25:38;;;;;;;42.67;39.25;;;;;;;;;;5075394;28;20504;-83
2023/09/10 03:28:04;;;;;;;43.97;40.45;;;;;;;;;;5076195;28;20477;-83
2023/09/10 03:30:30;;;;;;;54.08;49.30;;;;;;;;;;5076222;28;20067;-83
2023/09/10 03:32:56;;;;;;;44.85;41.25;;;;;;;;;;5074473;28;20135;-83
2023/09/10 03:35:22;;;;;;;39.53;36.33;;;;;;;;;;5075407;28;20060;-83
2023/09/10 03:37:49;;;;;;;37.97;35.03;;;;;;;;;;5075556;28;20049;-83
2023/09/10 03:40:15;;;;;;;44.58;40.78;;;;;;;;;;5057827;28;20053;-83
2023/09/10 03:42:41;;;;;;;36.75;34.05;;;;;;;;;;5074563;28;20080;-84
2023/09/10 03:45:07;;;;;;;37.92;35.00;;;;;;;;;;5075443;28;20044;-84
2023/09/10 03:47:34;;;;;;;36.10;33.40;;;;;;;;;;5074491;28;20052;-83
2023/09/10 03:50:00;;;;;;;37.65;34.75;;;;;;;;;;5073347;28;20513;-83
2023/09/10 03:52:26;;;;;;;47.10;43.15;;;;;;;;;;5057902;28;20392;-83
2023/09/10 03:54:52;;;;;;;42.53;39.15;;;;;;;;;;5075732;28;20049;-83
2023/09/10 03:57:19;;;;;;;42.55;39.05;;;;;;;;;;5075565;28;20040;-83
2023/09/10 03:59:45;;;;;;;47.50;43.58;;;;;;;;;;5075197;28;20044;-83
2023/09/10 04:02:12;;;;;;;42.63;39.20;;;;;;;;;;5074886;28;20055;-83
2023/09/10 04:04:38;;;;;;;37.70;34.72;;;;;;;;;;5075596;28;20048;-83
2023/09/10 04:07:04;;;;;;;49.50;45.30;;;;;;;;;;5074803;28;20392;-83
2023/09/10 04:09:30;;;;;;;43.75;40.03;;;;;;;;;;5074529;28;20503;-83
2023/09/10 04:11:57;;;;;;;39.97;36.72;;;;;;;;;;5074164;28;20131;-83
2023/09/10 04:14:24;;;;;;;42.78;39.42;;;;;;;;;;5074205;28;20048;-84
2023/09/10 04:16:50;;;;;;;43.17;39.55;;;;;;;;;;5074319;28;20044;-83
2023/09/10 04:19:16;;;;;;;47.20;43.22;;;;;;;;;;5057662;28;20055;-83
2023/09/10 04:21:43;;;;;;;44.88;41.13;;;;;;;;;;5073901;28;20391;-83
2023/09/10 04:24:09;;;;;;;53.42;48.85;;;;;;;;;;5074026;28;20049;-83
2023/09/10 04:26:35;;;;;;;53.60;49.08;;;;;;;;;;5074799;28;20053;-83
2023/09/10 04:29:01;;;;;;;53.80;49.08;;;;;;;;;;5073588;28;20048;-83
2023/09/10 04:31:28;;;;;;;47.78;43.75;;;;;;;;;;5074667;28;20519;-83
2023/09/10 04:33:54;;;;;;;54.97;50.17;;;;;;;;;;5056985;28;20048;-83
2023/09/10 04:36:20;;;;;;;55.90;51.00;;;;;;;;;;5075020;28;20044;-83
2023/09/10 04:38:46;;;;;;;49.03;44.80;;;;;;;;;;5056939;28;20499;-83
2023/09/10 04:41:13;;;;;;;46.47;42.55;;;;;;;;;;5075024;28;20063;-83
2023/09/10 04:43:39;;;;;;;46.50;42.38;;;;;;;;;;5073178;28;20493;-83
2023/09/10 04:46:05;;;;;;;42.83;39.42;;;;;;;;;;5074005;28;20044;-83
2023/09/10 04:48:31;;;;;;;41.08;37.78;;;;;;;;;;5073654;28;20067;-83
2023/09/10 04:50:57;;;;;;;40.78;37.55;;;;;;;;;;5073509;28;20439;-83
2023/09/10 04:53:23;;;;;;;37.95;34.83;;;;;;;;;;5074782;28;20074;-83
2023/09/10 04:55:56;;;;;;;37.28;34.28;;;;;;;;;;5076978;28;20495;-82
2023/09/10 04:58:22;;;;;;;36.97;34.05;;;;;;;;;;5077563;28;20055;-83
2023/09/10 05:00:50;;;;;;;36.45;33.63;;;;;;;;;;5077838;28;20106;-83
2023/09/10 05:03:16;;;;;;;35.13;32.42;;;;;;;;;;5077870;28;20074;-83
2023/09/10 05:05:42;;;;;;;34.47;31.85;;;;;;;;;;5078584;28;20044;-83
2023/09/10 05:08:08;;;;;;;34.88;32.20;;;;;;;;;;5078732;28;20052;-83
2023/09/10 05:10:34;;;;;;;34.00;31.55;;;;;;;;;;5078830;28;20078;-83
2023/09/10 05:13:00;;;;;;;33.05;30.58;;;;;;;;;;5078119;28;20059;-83
2023/09/10 05:15:26;;;;;;;37.83;34.85;;;;;;;;;;5078900;28;20105;-83
2023/09/10 05:17:52;;;;;;;34.72;31.92;;;;;;;;;;5077621;28;20059;-83
2023/09/10 05:20:19;;;;;;;28.65;26.58;;;;;;;;;;5077624;28;20479;-83
2023/09/10 05:22:45;;;;;;;29.27;27.13;;;;;;;;;;5078065;28;20045;-83
2023/09/10 05:25:11;;;;;;;31.10;28.60;;;;;;;;;;5077795;28;20102;-84
2023/09/10 05:27:37;;;;;;;35.47;32.67;;;;;;;;;;5078441;28;20556;-83
2023/09/10 05:30:04;;;;;;;28.30;26.25;;;;;;;;;;5077282;28;20059;-83
2023/09/10 05:32:30;;;;;;;25.23;23.42;;;;;;;;;;5077027;28;20507;-83
2023/09/10 05:34:56;;;;;;;26.45;24.40;;;;;;;;;;5077406;28;20480;-83
2023/09/10 05:37:22;;;;;;;27.50;25.40;;;;;;;;;;5077406;28;20051;-83
2023/09/10 05:39:49;;;;;;;25.10;23.27;;;;;;;;;;5076541;28;20052;-82
2023/09/10 05:42:15;;;;;;;24.27;22.38;;;;;;;;;;5076132;28;20459;-83
2023/09/10 05:44:41;;;;;;;28.13;25.92;;;;;;;;;;5077067;28;20080;-83
2023/09/10 05:47:07;;;;;;;24.08;22.38;;;;;;;;;;5078487;28;20044;-83
2023/09/10 05:49:35;;;;;;;23.52;21.95;;;;;;;;;;5076865;28;20076;-83
2023/09/10 05:52:01;;;;;;;25.50;23.70;;;;;;;;;;5043921;28;20097;-83
2023/09/10 05:54:27;;;;;;;23.88;21.98;;;;;;;;;;5078310;28;20044;-83
2023/09/10 05:56:54;;;;;;;26.08;24.08;;;;;;;;;;5078061;28;20044;-83
2023/09/10 05:59:20;;;;;;;25.35;23.58;;;;;;;;;;5076661;28;20401;-83
2023/09/10 06:01:46;;;;;;;26.48;24.65;;;;;;;;;;5076207;28;20044;-83
2023/09/10 06:04:12;;;;;;;24.67;22.98;;;;;;;;;;5077538;28;20044;-83
2023/09/10 06:06:38;;;;;;;27.33;25.38;;;;;;;;;;5076643;28;20051;-83
2023/09/10 06:09:04;;;;;;;22.90;21.30;;;;;;;;;;5077655;28;20037;-83
2023/09/10 06:11:30;;;;;;;21.55;20.13;;;;;;;;;;5077676;28;20082;-83
2023/09/10 06:13:56;;;;;;;28.35;26.33;;;;;;;;;;5076593;28;20048;-83
2023/09/10 06:16:23;;;;;;;23.30;21.55;;;;;;;;;;5060038;28;20548;-83
2023/09/10 06:18:49;;;;;;;23.70;22.08;;;;;;;;;;5077691;28;20044;-83
2023/09/10 06:21:15;;;;;;;23.77;22.15;;;;;;;;;;5076593;28;20052;-83
2023/09/10 06:23:42;;;;;;;26.17;24.38;;;;;;;;;;5076708;28;20127;-84
2023/09/10 06:26:08;;;;;;;29.58;27.48;;;;;;;;;;5076321;28;20055;-84
2023/09/10 06:28:34;;;;;;;32.28;29.80;;;;;;;;;;5075966;28;20041;-84
2023/09/10 06:31:01;;;;;;;33.22;30.77;;;;;;;;;;5076219;28;20083;-83
2023/09/10 06:33:27;;;;;;;36.63;33.88;;;;;;;;;;5077516;28;20040;-84
2023/09/10 06:35:53;;;;;;;35.58;32.80;;;;;;;;;;5077441;28;20074;-84
2023/09/10 06:38:19;;;;;;;42.97;39.47;;;;;;;;;;5077045;28;20052;-84
2023/09/10 06:40:45;;;;;;;45.22;41.63;;;;;;;;;;5076970;28;20515;-84
2023/09/10 06:43:11;;;;;;;48.00;43.83;;;;;;;;;;5075689;28;20063;-83
2023/09/10 06:45:38;;;;;;;47.97;44.15;;;;;;;;;;5075739;28;20515;-83
2023/09/10 06:48:05;;;;;;;56.10;51.38;;;;;;;;;;5076896;28;20082;-83
2023/09/10 06:50:31;;;;;;;57.75;52.92;;;;;;;;;;5076268;28;20041;-83
2023/09/10 06:52:57;;;;;;;54.97;50.22;;;;;;;;;;5075275;28;20047;-83
2023/09/10 06:55:23;;;;;;;61.65;56.30;;;;;;;;;;5075646;28;20060;-83
2023/09/10 06:57:50;;;;;;;66.70;60.63;;;;;;;;;;5075900;28;20048;-83
2023/09/10 07:00:16;;;;;;;64.00;58.53;;;;;;;;;;5058940;28;20072;-83
2023/09/10 07:02:42;;;;;;;68.18;62.17;;;;;;;;;;5076444;28;20040;-83
2023/09/10 07:05:09;;;;;;;67.10;61.30;;;;;;;;;;5075699;28;20063;-84
2023/09/10 07:07:36;;;;;;;67.30;61.13;;;;;;;;;;5058812;28;20044;-83
2023/09/10 07:10:02;;;;;;;65.35;59.70;;;;;;;;;;5075770;28;20048;-83
2023/09/10 07:12:28;;;;;;;65.38;59.38;;;;;;;;;;5075012;28;20477;-84
2023/09/10 07:14:54;;;;;;;63.30;58.03;;;;;;;;;;5075188;28;20041;-84
2023/09/10 07:17:20;;;;;;;59.60;54.63;;;;;;;;;;5074958;28;20080;-84
2023/09/10 07:19:46;;;;;;;61.03;55.67;;;;;;;;;;5073544;28;20063;-84
2023/09/10 07:22:13;;;;;;;56.97;51.90;;;;;;;;;;5074978;28;20041;-84
2023/09/10 07:24:40;;;;;;;61.45;56.22;;;;;;;;;;5076067;28;20055;-84
2023/09/10 07:27:06;;;;;;;58.15;53.30;;;;;;;;;;5076129;28;20053;-84
2023/09/10 07:29:32;;;;;;;55.35;50.53;;;;;;;;;;5075685;28;20380;-84
2023/09/10 07:31:58;;;;;;;59.08;54.00;;;;;;;;;;5075820;28;20476;-84
2023/09/10 07:34:24;;;;;;;55.92;51.10;;;;;;;;;;5075997;28;20045;-84
2023/09/10 07:36:51;;;;;;;55.92;51.05;;;;;;;;;;5075062;28;20055;-84
2023/09/10 07:39:19;;;;;;;59.35;54.05;;;;;;;;;;5075360;28;20107;-84
2023/09/10 07:41:45;;;;;;;62.47;57.03;;;;;;;;;;5074584;28;20061;-84
2023/09/10 07:44:11;;;;;;;54.45;50.05;;;;;;;;;;5075886;28;20044;-84
2023/09/10 07:46:37;;;;;;;55.63;50.88;;;;;;;;;;5075930;28;20048;-84
2023/09/10 07:49:03;;;;;;;55.58;50.88;;;;;;;;;;5074838;28;20060;-84
2023/09/10 07:51:29;;;;;;;55.15;50.53;;;;;;;;;;5074394;28;20083;-84
2023/09/10 07:53:55;;;;;;;56.72;51.92;;;;;;;;;;5074793;28;20051;-84
2023/09/10 07:56:21;;;;;;;66.68;61.08;;;;;;;;;;5074142;28;20044;-84
2023/09/10 07:58:47;;;;;;;55.15;50.63;;;;;;;;;;5075345;28;20047;-84
2023/09/10 08:01:13;;;;;;;50.78;46.67;;;;;;;;;;5075222;28;20044;-83
2023/09/10 08:03:42;;;;;;;51.63;47.20;;;;;;;;;;5074826;28;20044;-84
2023/09/10 08:06:08;;;;;;;49.78;45.65;;;;;;;;;;5075437;28;20061;-84
2023/09/10 08:08:34;;;;;;;49.38;44.88;;;;;;;;;;5075557;28;20045;-84
2023/09/10 08:11:00;;;;;;;51.78;47.45;;;;;;;;;;5074390;28;20055;-84
2023/09/10 08:13:26;;;;;;;48.67;44.60;;;;;;;;;;5074563;28;20044;-84
2023/09/10 08:15:52;;;;;;;47.28;43.28;;;;;;;;;;5074562;28;20476;-84
2023/09/10 08:18:18;;;;;;;44.10;40.30;;;;;;;;;;5075246;28;20048;-84
2023/09/10 08:20:44;;;;;;;42.20;38.83;;;;;;;;;;5056790;28;20451;-83
2023/09/10 08:23:11;;;;;;;41.55;37.95;;;;;;;;;;5074424;28;20048;-84
2023/09/10 08:25:37;;;;;;;41.80;38.10;;;;;;;;;;5040649;28;20058;-85
2023/09/10 08:28:03;;;;;;;43.67;40.08;;;;;;;;;;5074185;28;20121;-84
2023/09/10 08:30:29;;;;;;;44.25;40.67;;;;;;;;;;5075213;28;20048;-84
2023/09/10 08:32:55;;;;;;;43.17;39.65;;;;;;;;;;5074817;28;20052;-84
2023/09/10 08:35:22;;;;;;;45.58;41.83;;;;;;;;;;5074000;28;20405;-84
2023/09/10 08:37:48;;;;;;;43.63;39.85;;;;;;;;;;5073610;28;20090;-83
2023/09/10 08:40:16;;;;;;;46.30;42.60;;;;;;;;;;5074789;28;20052;-83
2023/09/10 08:42:55;;;;;;;44.65;41.13;;;;;;;;;;5073443;28;20118;-84
2023/09/10 08:45:23;;;;;;;45.38;41.78;;;;;;;;;;5074681;28;20136;-83
2023/09/10 08:47:49;;;;;;;44.20;40.70;;;;;;;;;;5074909;28;20109;-83
2023/09/10 08:50:15;;;;;;;45.17;41.28;;;;;;;;;;5074731;28;20131;-83
2023/09/10 08:52:43;;;;;;;42.88;39.33;;;;;;;;;;5073415;28;20041;-83
2023/09/10 08:55:11;;;;;;;41.22;37.80;;;;;;;;;;5074959;28;20049;-84
2023/09/10 08:57:38;;;;;;;41.42;37.90;;;;;;;;;;5073761;28;20084;-84
2023/09/10 09:00:12;;;;;;;42.47;39.17;;;;;;;;;;5073786;28;20083;-84
2023/09/10 09:02:41;;;;;;;41.65;38.15;;;;;;;;;;5074486;28;20060;-84
2023/09/10 09:05:08;;;;;;;41.40;37.78;;;;;;;;;;5074761;28;20045;-84
2023/09/10 09:07:42;;;;;;;40.40;37.00;;;;;;;;;;5073394;28;20037;-84
2023/09/10 09:10:12;;;;;;;41.10;37.75;;;;;;;;;;5052014;28;20099;-84
2023/09/10 09:12:39;;;;;;;38.67;35.63;;;;;;;;;;5053494;28;20045;-83
2023/09/10 09:15:07;;;;;;;37.38;34.45;;;;;;;;;;5073508;28;20041;-82
2023/09/10 09:17:33;;;;;;;38.35;35.13;;;;;;;;;;5072920;28;20040;-84
2023/09/10 09:20:00;;;;;;;35.95;33.05;;;;;;;;;;5055480;28;20094;-83
2023/09/10 09:22:28;;;;;;;33.10;30.15;;;;;;;;;;5072195;28;20485;-83
2023/09/10 09:24:55;;;;;;;35.17;32.15;;;;;;;;;;5056311;28;20052;-84
2023/09/10 09:27:25;;;;;;;32.63;30.23;;;;;;;;;;5071039;28;20120;-84
2023/09/10 09:29:51;;;;;;;32.63;30.23;;;;;;;;;;5072555;28;20051;-85
2023/09/10 09:32:17;;;;;;;30.48;28.25;;;;;;;;;;5069120;28;20048;-84
2023/09/10 09:34:43;;;;;;;30.23;28.02;;;;;;;;;;5055383;28;20117;-84
2023/09/10 09:37:09;;;;;;;31.65;28.90;;;;;;;;;;5071437;28;20255;-85
2023/09/10 09:39:37;;;;;;;29.50;27.25;;;;;;;;;;5072864;28;20059;-83
2023/09/10 09:42:05;;;;;;;28.85;26.65;;;;;;;;;;5073911;28;20074;-84
2023/09/10 09:44:32;;;;;;;26.42;24.42;;;;;;;;;;5075914;28;20508;-85
2023/09/10 09:46:58;;;;;;;26.83;24.73;;;;;;;;;;5077902;28;20044;-83
2023/09/10 09:49:25;;;;;;;27.48;25.17;;;;;;;;;;5077961;28;20526;-85
2023/09/10 09:51:51;;;;;;;29.27;26.83;;;;;;;;;;5077880;28;20041;-85
2023/09/10 09:54:19;;;;;;;25.55;23.35;;;;;;;;;;5077659;28;20099;-85
2023/09/10 09:56:46;;;;;;;24.48;22.40;;;;;;;;;;5078440;28;20041;-85
2023/09/10 09:59:12;;;;;;;25.60;23.48;;;;;;;;;;5076703;28;20576;-85
2023/09/10 10:01:41;;;;;;;23.50;21.25;;;;;;;;;;5078117;28;20048;-85
2023/09/10 10:04:07;;;;;;;22.63;20.92;;;;;;;;;;5078172;28;20067;-84
2023/09/10 10:06:35;;;;;;;22.42;20.38;;;;;;;;;;5076665;28;20123;-84
2023/09/10 10:09:02;;;;;;;19.50;17.95;;;;;;;;;;5077234;28;20136;-84
2023/09/10 10:11:32;;;;;;;22.38;20.33;;;;;;;;;;5060123;28;20101;-84
2023/09/10 10:13:59;;;;;;;19.45;18.00;;;;;;;;;;5077026;28;20049;-84
2023/09/10 10:16:29;;;;;;;19.88;18.08;;;;;;;;;;5076891;28;20098;-84
2023/09/10 10:18:56;;;;;;;20.13;18.30;;;;;;;;;;5076682;28;20153;-84
2023/09/10 10:21:23;;;;;;;19.40;17.52;;;;;;;;;;5059431;28;20373;-84
2023/09/10 10:23:49;;;;;;;17.88;16.52;;;;;;;;;;5076941;28;20052;-84
2023/09/10 10:26:17;;;;;;;17.55;15.88;;;;;;;;;;5077377;28;20516;-86
2023/09/10 10:28:44;;;;;;;17.52;15.10;;;;;;;;;;5077672;28;20048;-85
2023/09/10 10:31:18;;;;;;;16.25;14.75;;;;;;;;;;5076354;28;20434;-85
2023/09/10 10:33:51;;;;;;;19.13;17.70;;;;;;;;;;5076603;28;20051;-85
2023/09/10 10:36:20;;;;;;;18.27;16.47;;;;;;;;;;5077500;28;20044;-85
2023/09/10 10:38:47;;;;;;;16.45;14.65;;;;;;;;;;5075572;28;20051;-85
2023/09/10 10:41:14;;;;;;;13.23;11.88;;;;;;;;;;5076059;28;20543;-85
2023/09/10 10:43:42;;;;;;;16.10;14.68;;;;;;;;;;5076490;28;20052;-85
2023/09/10 10:46:09;;;;;;;15.88;14.48;;;;;;;;;;5058907;28;20133;-84
2023/09/10 10:48:39;;;;;;;16.25;14.77;;;;;;;;;;5076999;28;20511;-85
2023/09/10 10:51:09;;;;;;;17.15;15.63;;;;;;;;;;5076762;28;20053;-85
2023/09/10 10:53:35;;;;;;;13.68;12.48;;;;;;;;;;5077222;28;20127;-85
2023/09/10 10:56:03;;;;;;;12.90;11.73;;;;;;;;;;5059415;28;20072;-85
2023/09/10 10:58:30;;;;;;;14.80;12.48;;;;;;;;;;5058829;28;20052;-85
2023/09/10 11:00:58;;;;;;;15.52;12.57;;;;;;;;;;5058981;28;20457;-85
2023/09/10 11:03:24;;;;;;;14.10;12.65;;;;;;;;;;5075633;28;20047;-84
2023/09/10 11:06:04;;;;;;;13.80;12.60;;;;;;;;;;5075072;28;20539;-85
2023/09/10 11:08:40;;;;;;;12.98;11.65;;;;;;;;;;5075161;28;20078;-85
2023/09/10 11:11:08;;;;;;;12.10;10.90;;;;;;;;;;5076094;28;20044;-85
2023/09/10 11:13:34;;;;;;;13.32;11.18;;;;;;;;;;5075288;28;20048;-85
2023/09/10 11:16:06;;;;;;;12.73;11.60;;;;;;;;;;5076795;28;20052;-85
2023/09/10 11:18:35;;;;;;;14.10;10.73;;;;;;;;;;5075450;28;20480;-85
2023/09/10 11:21:05;;;;;;;11.50;10.15;;;;;;;;;;5074675;28;20047;-85
2023/09/10 11:23:32;;;;;;;14.85;10.07;;;;;;;;;;5059502;28;20060;-85
2023/09/10 11:26:13;;;;;;;15.52;10.55;;;;;;;;;;5075598;28;20048;-86
2023/09/10 11:28:59;;;;;;;13.73;10.88;;;;;;;;;;5076594;28;20052;-85
2023/09/10 11:31:47;;;;;;;13.38;11.10;;;;;;;;;;5075913;28;20515;-85
2023/09/10 11:34:27;;;;;;;16.63;10.30;;;;;;;;;;5076483;28;20053;-86
2023/09/10 11:36:54;;;;;;;15.20;8.20;;;;;;;;;;5072047;28;20101;-86
2023/09/10 11:39:21;;;;;;;11.20;10.02;;;;;;;;;;5073679;28;20044;-86
2023/09/10 11:41:51;;;;;;;13.68;9.30;;;;;;;;;;5074488;28;20523;-85
2023/09/10 11:44:17;;;;;;;17.63;9.35;;;;;;;;;;5075290;28;20523;-85
2023/09/10 11:46:44;;;;;;;13.85;10.35;;;;;;;;;;5074181;28;20051;-85
2023/09/10 11:49:10;;;;;;;14.00;10.05;;;;;;;;;;5074370;28;20135;-86
2023/09/10 11:51:44;;;;;;;13.00;8.75;;;;;;;;;;5074386;28;20057;-85
2023/09/10 11:54:16;;;;;;;12.95;11.57;;;;;;;;;;5073870;28;20075;-85
2023/09/10 11:56:42;;;;;;;18.05;11.13;;;;;;;;;;5074695;28;20050;-85
2023/09/10 11:59:08;;;;;;;18.52;10.07;;;;;;;;;;5074402;28;20051;-85
2023/09/10 12:01:34;;;;;;;17.83;9.45;;;;;;;;;;5073506;28;20052;-85
2023/09/10 12:04:02;;;;;;;11.25;8.05;;;;;;;;;;5073666;28;20459;-85
2023/09/10 12:06:28;;;;;;;11.02;9.05;;;;;;;;;;5056129;28;20048;-85
2023/09/10 12:08:54;;;;;;;16.92;9.35;;;;;;;;;;5056808;28;20054;-85
2023/09/10 12:11:20;;;;;;;18.15;8.93;;;;;;;;;;5073575;28;20048;-85
2023/09/10 12:13:47;;;;;;;16.02;9.30;;;;;;;;;;5073351;28;20464;-85
2023/09/10 12:16:13;;;;;;;16.27;9.23;;;;;;;;;;5074619;28;20053;-84
2023/09/10 12:18:39;;;;;;;16.02;8.70;;;;;;;;;;5056907;28;20048;-85
2023/09/10 12:21:06;;;;;;;21.20;8.70;;;;;;;;;;5072451;28;20051;-84
2023/09/10 12:23:33;;;;;;;22.30;9.40;;;;;;;;;;5073464;28;20131;-85
2023/09/10 12:25:59;;;;;;;16.98;8.02;;;;;;;;;;5073387;28;20102;-85
2023/09/10 12:28:26;;;;;;;21.25;8.30;;;;;;;;;;5072577;28;20480;-85
2023/09/10 12:30:52;;;;;;;24.70;9.23;;;;;;;;;;5073019;28;20059;-85
2023/09/10 12:33:23;;;;;;;18.70;8.30;;;;;;;;;;5039699;28;20143;-85
2023/09/10 12:35:49;;;;;;;26.77;8.50;;;;;;;;;;5074523;28;20133;-85
2023/09/10 12:38:15;;;;;;;23.83;8.68;;;;;;;;;;5073464;28;20052;-85
2023/09/10 12:40:42;;;;;;;26.13;8.07;;;;;;;;;;5072786;28;20067;-85
2023/09/10 12:43:08;;;;;;;24.60;8.48;;;;;;;;;;5073866;28;20129;-85
2023/09/10 12:45:35;;;;;;;24.30;8.38;;;;;;;;;;5074513;28;20048;-85
2023/09/10 12:48:01;;;;;;;19.80;8.10;;;;;;;;;;5073117;28;20394;-85
2023/09/10 12:50:27;;;;;;;24.58;8.25;;;;;;;;;;5074000;28;20171;-85
2023/09/10 12:52:56;;;;;;;26.52;8.43;;;;;;;;;;5071382;28;20488;-84
2023/09/10 12:55:23;;;;;;;21.20;8.60;;;;;;;;;;5106385;28;20625;-85
2023/09/10 12:57:55;;;;;;;20.13;8.88;;;;;;;;;;5072974;28;20439;-85
2023/09/10 13:00:22;;;;;;;17.92;8.57;;;;;;;;;;5071820;28;20047;-85
2023/09/10 13:02:48;;;;;;;23.42;8.10;;;;;;;;;;5072124;28;20048;-85
2023/09/10 13:05:15;;;;;;;30.30;8.63;;;;;;;;;;5071864;28;20409;-85
2023/09/10 13:07:45;;;;;;;27.65;7.82;;;;;;;;;;5073743;28;20435;-85
2023/09/10 13:10:11;;;;;;;27.23;8.85;;;;;;;;;;5074087;28;20040;-83
2023/09/10 13:12:37;;;;;;;29.70;8.68;;;;;;;;;;5074365;28;20048;-85
2023/09/10 13:15:04;;;;;;;28.55;7.50;;;;;;;;;;5107532;28;20044;-84
2023/09/10 13:17:30;;;;;;;21.80;7.75;;;;;;;;;;5077037;28;20056;-84
2023/09/10 13:19:57;;;;;;;28.45;8.20;;;;;;;;;;5077422;28;20036;-84
2023/09/10 13:22:23;;;;;;;25.08;8.35;;;;;;;;;;5077625;28;20055;-84
2023/09/10 13:24:49;;;;;;;23.08;7.90;;;;;;;;;;5079128;28;20044;-84
2023/09/10 13:27:16;;;;;;;27.70;7.47;;;;;;;;;;5078765;28;20091;-84
2023/09/10 13:29:43;;;;;;;28.02;8.40;;;;;;;;;;5078462;28;20052;-84
2023/09/10 13:32:09;;;;;;;22.17;7.45;;;;;;;;;;5077108;28;20044;-84
2023/09/10 13:34:35;;;;;;;25.95;7.38;;;;;;;;;;5078307;28;20075;-84
2023/09/10 13:37:04;;;;;;;22.00;7.60;;;;;;;;;;5078231;28;20085;-84
2023/09/10 13:39:31;;;;;;;20.58;7.63;;;;;;;;;;5077742;28;20037;-85
2023/09/10 13:41:57;;;;;;;24.52;7.85;;;;;;;;;;5075756;28;20052;-84
2023/09/10 13:44:23;;;;;;;24.23;8.32;;;;;;;;;;5078050;28;20143;-85
2023/09/10 13:46:50;;;;;;;24.52;8.60;;;;;;;;;;5076900;28;20045;-84
2023/09/10 13:49:16;;;;;;;20.25;7.53;;;;;;;;;;5060178;28;20366;-84
2023/09/10 13:51:42;;;;;;;24.17;7.75;;;;;;;;;;5076920;28;20515;-84
2023/09/10 13:54:09;;;;;;;22.33;7.45;;;;;;;;;;5076792;28;20425;-84
2023/09/10 13:56:35;;;;;;;21.88;8.40;;;;;;;;;;5077504;28;20049;-84
2023/09/10 13:59:02;;;;;;;29.48;9.15;;;;;;;;;;5076650;28;20522;-84
2023/09/10 14:01:28;;;;;;;28.10;8.18;;;;;;;;;;5060068;28;20048;-84
2023/09/10 14:03:55;;;;;;;29.63;8.07;;;;;;;;;;5059900;28;20040;-84
2023/09/10 14:06:21;;;;;;;32.97;8.30;;;;;;;;;;5076890;28;20048;-84
2023/09/10 14:08:47;;;;;;;25.50;8.82;;;;;;;;;;5073762;28;20146;-84
2023/09/10 14:11:13;;;;;;;32.25;8.13;;;;;;;;;;5076729;28;20049;-84
2023/09/10 14:13:39;;;;;;;25.73;7.82;;;;;;;;;;5071913;28;20360;-84
2023/09/10 14:16:05;;;;;;;27.92;8.43;;;;;;;;;;5075108;28;20044;-85
2023/09/10 14:18:32;;;;;;;23.67;8.02;;;;;;;;;;5073195;28;20036;-84